createdAt,value
2018-11-04T00:00:49.528Z,9.07
2018-11-04T00:02:58.277Z,9.87
2018-11-04T00:05:07.048Z,11.17
2018-11-04T00:07:15.895Z,11.47
2018-11-04T00:09:24.688Z,10.90
2018-11-04T00:11:33.442Z,10.40
2018-11-04T00:13:42.241Z,12.53
2018-11-04T00:15:51.148Z,11.53
2018-11-04T00:18:00.646Z,11.07
2018-11-04T00:20:10.348Z,10.97
2018-11-04T00:22:19.143Z,11.93
2018-11-04T00:24:27.964Z,12.80
2018-11-04T00:26:36.646Z,12.17
2018-11-04T00:28:45.372Z,11.67
2018-11-04T00:30:55.020Z,12.40
2018-11-04T00:33:03.857Z,12.40
2018-11-04T00:35:12.592Z,12.07
2018-11-04T00:37:21.518Z,11.73
2018-11-04T00:39:30.623Z,11.73
2018-11-04T00:41:39.275Z,12.70
2018-11-04T00:43:48.228Z,12.40
2018-11-04T00:45:57.038Z,11.23
2018-11-04T00:48:06.591Z,11.80
2018-11-04T00:50:15.477Z,12.10
2018-11-04T00:52:24.362Z,13.83
2018-11-04T00:54:33.181Z,12.30
2018-11-04T00:56:41.928Z,13.50
2018-11-04T00:58:50.787Z,14.80
2018-11-04T01:01:01.177Z,13.33
2018-11-04T01:03:10.694Z,13.40
2018-11-04T01:05:20.270Z,12.83
2018-11-04T01:07:29.064Z,14.07
2018-11-04T01:09:37.993Z,12.80
2018-11-04T01:11:46.990Z,12.83
2018-11-04T01:13:55.768Z,13.80
2018-11-04T01:16:04.639Z,13.10
2018-11-04T01:18:13.459Z,13.50
2018-11-04T01:20:22.268Z,13.23
2018-11-04T01:22:32.653Z,12.83
2018-11-04T01:24:42.990Z,13.57
2018-11-04T01:26:51.851Z,12.83
2018-11-04T01:29:01.606Z,14.30
2018-11-04T01:31:10.363Z,12.53
2018-11-04T01:33:19.180Z,12.93
2018-11-04T01:35:28.758Z,14.40
2018-11-04T01:37:37.668Z,13.43
2018-11-04T01:39:46.415Z,13.50
2018-11-04T01:41:55.128Z,14.30
2018-11-04T01:44:03.828Z,12.90
2018-11-04T01:46:12.584Z,14.23
2018-11-04T01:48:21.538Z,14.87
2018-11-04T01:50:30.403Z,14.43
2018-11-04T01:52:39.236Z,14.27
2018-11-04T01:54:48.071Z,13.43
2018-11-04T01:56:57.574Z,14.70
2018-11-04T01:59:06.377Z,14.60
2018-11-04T02:01:15.228Z,14.33
2018-11-04T02:03:23.984Z,14.00
2018-11-04T02:05:32.828Z,14.00
2018-11-04T02:07:42.375Z,15.00
2018-11-04T02:09:51.298Z,13.30
2018-11-04T02:12:00.057Z,13.00
2018-11-04T02:14:08.937Z,14.57
2018-11-04T02:16:17.962Z,14.67
2018-11-04T02:18:26.987Z,14.00
2018-11-04T02:20:35.774Z,15.23
2018-11-04T02:22:44.516Z,14.77
2018-11-04T02:24:53.344Z,15.17
2018-11-04T02:27:02.421Z,15.33
2018-11-04T02:29:11.273Z,15.17
2018-11-04T02:31:20.168Z,15.52
2018-11-04T02:33:29.096Z,16.07
2018-11-04T02:35:38.648Z,14.40
2018-11-04T02:37:48.215Z,15.07
2018-11-04T02:39:57.824Z,15.27
2018-11-04T02:42:06.672Z,13.10
2018-11-04T02:44:15.407Z,15.90
2018-11-04T02:46:24.048Z,15.23
2018-11-04T02:48:32.896Z,15.80
2018-11-04T02:50:41.704Z,15.53
2018-11-04T02:52:50.683Z,16.03
2018-11-04T02:54:59.391Z,15.90
2018-11-04T02:57:08.756Z,14.87
2018-11-04T02:59:17.369Z,14.80
2018-11-04T03:01:26.328Z,15.37
2018-11-04T03:03:35.145Z,14.90
2018-11-04T03:05:44.533Z,16.17
2018-11-04T03:07:53.281Z,15.23
2018-11-04T03:10:02.207Z,16.60
2018-11-04T03:12:11.025Z,14.50
2018-11-04T03:14:19.921Z,16.13
2018-11-04T03:16:29.634Z,16.40
2018-11-04T03:18:38.525Z,16.00
2018-11-04T03:20:48.164Z,16.03
2018-11-04T03:22:57.019Z,16.27
2018-11-04T03:25:06.780Z,15.90
2018-11-04T03:27:15.496Z,15.03
2018-11-04T03:29:24.357Z,15.50
2018-11-04T03:31:32.982Z,15.70
2018-11-04T03:33:42.136Z,15.40
2018-11-04T03:35:50.799Z,15.30
2018-11-04T03:38:00.187Z,15.93
2018-11-04T03:40:10.239Z,16.70
2018-11-04T03:42:20.005Z,16.57
2018-11-04T03:44:29.004Z,16.50
2018-11-04T03:46:37.876Z,15.67
2018-11-04T03:48:46.741Z,15.70
2018-11-04T03:50:55.412Z,14.50
2018-11-04T03:53:04.033Z,15.80
2018-11-04T03:55:12.848Z,16.47
2018-11-04T03:57:22.365Z,16.00
2018-11-04T03:59:31.332Z,16.07
2018-11-04T04:01:40.239Z,16.85
2018-11-04T04:03:49.003Z,15.57
2018-11-04T04:05:57.940Z,16.67
2018-11-04T04:08:07.229Z,18.50
2018-11-04T04:10:16.032Z,16.70
2018-11-04T04:12:25.448Z,16.37
2018-11-04T04:14:35.089Z,16.60
2018-11-04T04:16:44.025Z,17.00
2018-11-04T04:18:52.900Z,16.90
2018-11-04T04:21:01.835Z,17.77
2018-11-04T04:23:10.576Z,15.50
2018-11-04T04:25:19.421Z,18.35
2018-11-04T04:27:28.015Z,16.40
2018-11-04T04:29:36.622Z,16.67
2018-11-04T04:31:45.481Z,17.77
2018-11-04T04:33:54.297Z,17.40
2018-11-04T04:36:03.113Z,17.30
2018-11-04T04:38:11.800Z,16.33
2018-11-04T04:40:21.266Z,18.40
2018-11-04T04:42:30.045Z,17.33
2018-11-04T04:44:39.609Z,17.07
2018-11-04T04:46:48.660Z,17.98
2018-11-04T04:48:57.608Z,17.33
2018-11-04T04:51:07.144Z,17.90
2018-11-04T04:53:16.098Z,18.70
2018-11-04T04:55:26.474Z,17.10
2018-11-04T04:57:35.805Z,16.70
2018-11-04T04:59:44.657Z,16.90
2018-11-04T05:01:53.740Z,16.60
2018-11-04T05:04:03.253Z,16.77
2018-11-04T05:06:13.089Z,16.20
2018-11-04T05:08:22.009Z,16.97
2018-11-04T05:10:30.973Z,16.70
2018-11-04T05:12:39.828Z,18.90
2018-11-04T05:14:49.013Z,17.50
2018-11-04T05:16:58.557Z,18.70
2018-11-04T05:19:07.377Z,16.93
2018-11-04T05:21:15.955Z,16.20
2018-11-04T05:23:24.813Z,17.77
2018-11-04T05:25:34.118Z,15.83
2018-11-04T05:27:43.764Z,17.10
2018-11-04T05:29:53.289Z,18.65
2018-11-04T05:32:01.971Z,16.63
2018-11-04T05:34:10.717Z,16.03
2018-11-04T05:36:19.512Z,17.57
2018-11-04T05:38:28.429Z,17.77
2018-11-04T05:40:37.153Z,18.20
2018-11-04T05:42:46.647Z,17.20
2018-11-04T05:44:55.377Z,18.07
2018-11-04T05:47:04.145Z,19.13
2018-11-04T05:49:13.108Z,18.57
2018-11-04T05:51:21.904Z,17.47
2018-11-04T05:53:30.716Z,18.20
2018-11-04T05:55:39.603Z,18.50
2018-11-04T05:57:48.281Z,18.20
2018-11-04T05:59:57.313Z,18.57
2018-11-04T06:02:05.985Z,19.33
2018-11-04T06:04:15.573Z,17.50
2018-11-04T06:06:24.359Z,16.63
2018-11-04T06:08:33.236Z,18.27
2018-11-04T06:10:41.795Z,17.93
2018-11-04T06:12:50.693Z,16.85
2018-11-04T06:15:00.145Z,18.20
2018-11-04T06:17:08.927Z,16.90
2018-11-04T06:19:17.877Z,20.17
2018-11-04T06:21:26.748Z,17.40
2018-11-04T06:23:35.407Z,17.97
2018-11-04T06:25:44.273Z,17.87
2018-11-04T06:27:53.013Z,16.90
2018-11-04T06:30:02.030Z,18.10
2018-11-04T06:32:11.121Z,17.97
2018-11-04T06:34:20.039Z,17.67
2018-11-04T06:36:28.640Z,17.70
2018-11-04T06:38:38.317Z,18.00
2018-11-04T06:40:48.540Z,18.93
2018-11-04T06:42:57.532Z,18.50
2018-11-04T06:45:07.029Z,18.80
2018-11-04T06:47:15.837Z,17.15
2018-11-04T06:49:25.284Z,17.10
2018-11-04T06:51:33.862Z,16.97
2018-11-04T06:53:42.584Z,17.50
2018-11-04T06:55:51.246Z,19.23
2018-11-04T06:58:01.253Z,19.57
2018-11-04T07:00:10.822Z,17.70
2018-11-04T07:02:20.225Z,18.52
2018-11-04T07:04:29.169Z,18.80
2018-11-04T07:06:37.914Z,18.13
2018-11-04T07:08:46.954Z,18.50
2018-11-04T07:10:56.447Z,19.17
2018-11-04T07:13:05.372Z,21.87
2018-11-04T07:15:14.224Z,19.63
2018-11-04T07:17:23.886Z,18.60
2018-11-04T07:19:32.627Z,20.50
2018-11-04T07:21:41.395Z,20.53
2018-11-04T07:23:50.207Z,21.40
2018-11-04T07:25:59.617Z,20.97
2018-11-04T07:28:08.338Z,21.90
2018-11-04T07:30:17.267Z,19.83
2018-11-04T07:32:26.849Z,20.27
2018-11-04T07:34:36.417Z,19.10
2018-11-04T07:36:45.178Z,20.50
2018-11-04T07:38:53.941Z,18.03
2018-11-04T07:41:02.607Z,19.70
2018-11-04T07:43:11.321Z,19.63
2018-11-04T07:45:19.993Z,19.60
2018-11-04T07:47:28.929Z,18.90
2018-11-04T07:49:37.865Z,20.23
2018-11-04T07:51:46.677Z,19.90
2018-11-04T07:53:55.489Z,22.47
2018-11-04T07:56:04.330Z,19.77
2018-11-04T07:58:13.398Z,19.60
2018-11-04T08:00:22.069Z,20.87
2018-11-04T08:02:30.889Z,20.63
2018-11-04T08:04:39.708Z,18.60
2018-11-04T08:06:48.485Z,20.27
2018-11-04T08:08:58.064Z,20.10
2018-11-04T08:11:07.019Z,20.62
2018-11-04T08:13:16.533Z,20.63
2018-11-04T08:15:26.065Z,20.20
2018-11-04T08:17:36.326Z,19.63
2018-11-04T08:19:45.854Z,21.10
2018-11-04T08:21:54.818Z,19.73
2018-11-04T08:24:04.085Z,20.90
2018-11-04T08:26:12.867Z,20.20
2018-11-04T08:28:21.548Z,19.40
2018-11-04T08:30:30.735Z,19.33
2018-11-04T08:32:39.608Z,19.27
2018-11-04T08:34:49.201Z,19.93
2018-11-04T08:36:57.801Z,19.67
2018-11-04T08:39:06.524Z,22.30
2018-11-04T08:41:16.077Z,21.43
2018-11-04T08:43:24.719Z,20.80
2018-11-04T08:45:33.479Z,21.30
2018-11-04T08:47:42.853Z,19.83
2018-11-04T08:49:51.693Z,20.03
2018-11-04T08:52:00.513Z,18.37
2018-11-04T08:54:09.281Z,19.57
2018-11-04T08:56:18.148Z,20.40
2018-11-04T08:58:26.828Z,20.33
2018-11-04T09:00:36.296Z,19.73
2018-11-04T09:02:45.948Z,19.10
2018-11-04T09:04:54.773Z,18.97
2018-11-04T09:07:03.646Z,20.77
2018-11-04T09:09:12.216Z,19.83
2018-11-04T09:11:21.096Z,18.20
2018-11-04T09:13:30.161Z,19.80
2018-11-04T09:15:38.913Z,20.23
2018-11-04T09:17:47.663Z,19.80
2018-11-04T09:19:57.185Z,20.60
2018-11-04T09:22:06.216Z,20.80
2018-11-04T09:26:50.072Z,19.70
2018-11-04T09:28:58.864Z,21.00
2018-11-04T09:31:07.741Z,19.53
2018-11-04T09:33:17.396Z,20.47
2018-11-04T09:35:26.400Z,19.67
2018-11-04T09:37:35.808Z,21.70
2018-11-04T09:39:45.477Z,20.80
2018-11-04T09:41:54.349Z,19.10
2018-11-04T09:44:03.140Z,20.07
2018-11-04T09:46:11.954Z,20.33
2018-11-04T09:48:20.757Z,19.30
2018-11-04T09:50:29.577Z,19.10
2018-11-04T09:52:38.467Z,19.23
2018-11-04T09:54:47.344Z,20.50
2018-11-04T09:56:56.226Z,20.47
2018-11-04T09:59:05.095Z,20.43
2018-11-04T10:01:14.583Z,17.97
2018-11-04T10:03:23.431Z,20.20
2018-11-04T10:05:33.784Z,19.43
2018-11-04T10:07:42.490Z,20.27
2018-11-04T10:09:51.324Z,19.77
2018-11-04T10:12:00.939Z,19.63
2018-11-04T10:14:09.874Z,20.73
2018-11-04T10:16:18.682Z,19.50
2018-11-04T10:18:27.513Z,22.00
2018-11-04T10:20:37.363Z,20.40
2018-11-04T10:22:46.484Z,20.13
2018-11-04T10:24:55.262Z,21.30
2018-11-04T10:27:04.136Z,19.70
2018-11-04T10:29:12.792Z,20.33
2018-11-04T10:31:21.713Z,18.87
2018-11-04T10:33:31.298Z,19.27
2018-11-04T10:35:40.125Z,18.73
2018-11-04T10:37:49.041Z,20.23
2018-11-04T10:39:58.069Z,21.70
2018-11-04T10:42:06.971Z,20.00
2018-11-04T10:44:15.769Z,19.77
2018-11-04T10:46:25.217Z,20.10
2018-11-04T10:48:34.032Z,20.50
2018-11-04T10:50:42.985Z,19.63
2018-11-04T10:52:51.905Z,20.92
2018-11-04T10:55:00.588Z,19.63
2018-11-04T10:57:09.473Z,19.13
2018-11-04T10:59:18.319Z,17.80
2018-11-04T11:01:27.112Z,18.80
2018-11-04T11:03:35.773Z,19.27
2018-11-04T11:05:44.928Z,19.37
2018-11-04T11:07:53.837Z,19.73
2018-11-04T11:10:03.160Z,19.30
2018-11-04T11:12:12.123Z,17.55
2018-11-04T11:14:20.840Z,18.57
2018-11-04T11:16:29.664Z,18.33
2018-11-04T11:18:38.462Z,19.07
2018-11-04T11:20:47.132Z,18.93
2018-11-04T11:22:56.919Z,18.00
2018-11-04T11:25:05.553Z,19.50
2018-11-04T11:27:09.032Z,18.40
2018-11-04T11:29:13.244Z,17.23
2018-11-04T11:31:16.961Z,17.33
2018-11-04T11:33:20.000Z,18.00
2018-11-04T11:35:23.010Z,19.43
2018-11-04T11:37:26.905Z,18.07
2018-11-04T11:39:29.956Z,17.43
2018-11-04T11:41:32.985Z,17.17
2018-11-04T11:43:36.788Z,18.37
2018-11-04T11:45:39.712Z,18.57
2018-11-04T11:47:42.664Z,17.07
2018-11-04T11:49:45.587Z,17.57
2018-11-04T11:51:48.499Z,17.80
2018-11-04T11:53:52.315Z,16.83
2018-11-04T11:55:55.992Z,17.67
2018-11-04T11:57:59.714Z,15.03
2018-11-04T12:00:02.636Z,15.37
2018-11-04T12:02:05.597Z,14.83
2018-11-04T12:04:08.531Z,14.90
2018-11-04T12:06:12.224Z,13.70
2018-11-04T12:08:16.799Z,13.05
2018-11-04T12:10:19.728Z,14.67
2018-11-04T12:12:23.431Z,13.60
2018-11-04T12:14:26.381Z,14.47
2018-11-04T12:16:29.309Z,13.80
2018-11-04T12:18:33.032Z,13.90
2018-11-04T12:20:36.707Z,12.30
2018-11-04T12:22:40.398Z,12.63
2018-11-04T12:24:44.864Z,14.67
2018-11-04T12:26:47.788Z,13.10
2018-11-04T12:28:50.744Z,15.27
2018-11-04T12:30:53.748Z,13.10
2018-11-04T12:32:56.775Z,14.37
2018-11-04T12:35:00.605Z,14.03
2018-11-04T12:37:03.509Z,12.80
2018-11-04T12:39:06.452Z,14.23
2018-11-04T12:41:09.411Z,12.60
2018-11-04T12:43:13.108Z,12.27
2018-11-04T12:45:16.835Z,12.20
2018-11-04T12:47:19.752Z,11.33
2018-11-04T12:49:22.790Z,11.40
2018-11-04T12:51:26.477Z,11.67
2018-11-04T12:53:30.159Z,12.07
2018-11-04T12:55:33.099Z,9.83
2018-11-04T12:57:36.052Z,9.77
2018-11-04T12:59:39.855Z,11.27
2018-11-04T13:01:44.333Z,9.93
2018-11-04T13:03:47.244Z,12.33
2018-11-04T13:05:50.983Z,10.60
2018-11-04T13:07:53.991Z,9.80
2018-11-04T13:09:57.113Z,10.33
2018-11-04T13:12:00.058Z,10.13
2018-11-04T13:14:02.980Z,11.53
2018-11-04T13:16:06.894Z,10.50
2018-11-04T13:18:11.318Z,9.67
2018-11-04T13:20:14.264Z,11.07
2018-11-04T13:22:17.192Z,10.40
2018-11-04T13:24:20.136Z,10.50
2018-11-04T13:26:23.883Z,9.63
2018-11-04T13:28:26.854Z,11.00
2018-11-04T13:30:29.807Z,10.17
2018-11-04T13:32:33.521Z,10.20
2018-11-04T13:34:36.538Z,9.30
2018-11-04T13:36:39.489Z,8.90
2018-11-04T13:38:43.177Z,10.37
2018-11-04T13:40:46.991Z,10.43
2018-11-04T13:42:50.684Z,8.73
2018-11-04T13:44:54.355Z,9.30
2018-11-04T13:46:57.294Z,9.30
2018-11-04T13:49:00.199Z,9.40
2018-11-04T13:51:03.144Z,8.60
2018-11-04T13:53:06.069Z,8.83
2018-11-04T13:55:08.975Z,8.53
2018-11-04T13:57:12.085Z,9.25
2018-11-04T13:59:15.756Z,8.37
2018-11-04T14:01:28.620Z,9.20
2018-11-04T14:07:27.223Z,8.77
2018-11-04T14:11:58.843Z,9.50
2018-11-04T14:14:01.768Z,8.37
2018-11-04T14:16:04.879Z,8.35
2018-11-04T14:18:07.818Z,7.80
2018-11-04T14:20:11.500Z,7.73
2018-11-04T14:22:15.325Z,8.17
2018-11-04T14:24:18.245Z,7.90
2018-11-04T14:26:21.207Z,8.73
2018-11-04T14:28:24.128Z,8.03
2018-11-04T14:30:27.155Z,7.87
2018-11-04T14:32:30.585Z,7.30
2018-11-04T14:34:33.492Z,7.17
2018-11-04T14:36:36.440Z,7.50
2018-11-04T14:38:39.348Z,6.60
2018-11-04T14:40:42.255Z,8.03
2018-11-04T14:42:45.969Z,7.43
2018-11-04T14:44:48.887Z,7.27
2018-11-04T14:46:51.847Z,6.80
2018-11-04T14:48:54.763Z,7.87
2018-11-04T14:50:57.687Z,7.20
2018-11-04T14:53:01.539Z,7.57
2018-11-04T14:55:04.439Z,8.70
2018-11-04T14:57:07.380Z,7.53
2018-11-04T14:59:10.294Z,7.23
2018-11-04T15:01:13.264Z,8.60
2018-11-04T15:03:16.189Z,7.77
2018-11-04T15:05:19.160Z,7.80
2018-11-04T15:07:22.125Z,7.63
2018-11-04T15:09:25.029Z,7.93
2018-11-04T15:11:28.047Z,8.30
2018-11-04T15:13:31.845Z,7.87
2018-11-04T15:15:35.520Z,7.43
2018-11-04T15:17:39.823Z,9.20
2018-11-04T15:19:42.948Z,9.30
2018-11-04T15:21:45.957Z,8.23
2018-11-04T15:23:48.933Z,8.47
2018-11-04T15:25:51.848Z,8.83
2018-11-04T15:27:54.793Z,9.03
2018-11-04T15:29:57.720Z,8.10
2018-11-04T15:32:00.741Z,9.90
2018-11-04T15:34:04.624Z,8.93
2018-11-04T15:36:08.629Z,8.40
2018-11-04T15:38:11.645Z,7.60
2018-11-04T15:40:15.224Z,8.80
2018-11-04T15:42:18.216Z,8.80
2018-11-04T15:44:21.247Z,9.75
2018-11-04T15:46:24.155Z,8.53
2018-11-04T15:48:27.167Z,9.10
2018-11-04T15:50:30.115Z,8.67
2018-11-04T15:52:33.036Z,8.27
2018-11-04T15:54:35.980Z,7.90
2018-11-04T15:56:38.965Z,8.87
2018-11-04T15:58:41.924Z,8.77
2018-11-04T16:00:44.860Z,8.43
2018-11-04T16:02:47.851Z,8.63
2018-11-04T16:04:50.759Z,8.70
2018-11-04T16:06:53.685Z,8.03
2018-11-04T16:08:57.391Z,8.60
2018-11-04T16:11:01.079Z,8.27
2018-11-04T16:13:04.771Z,8.00
2018-11-04T16:15:07.713Z,7.80
2018-11-04T16:17:10.672Z,7.73
2018-11-04T16:19:13.592Z,8.07
2018-11-04T16:21:16.511Z,8.00
2018-11-04T16:23:19.516Z,6.50
2018-11-04T16:25:23.369Z,8.03
2018-11-04T16:27:26.243Z,6.93
2018-11-04T16:29:29.183Z,7.97
2018-11-04T16:31:32.172Z,7.10
2018-11-04T16:33:35.080Z,6.27
2018-11-04T16:35:38.131Z,7.00
2018-11-04T16:37:41.839Z,7.40
2018-11-04T16:39:45.515Z,6.67
2018-11-04T16:41:49.206Z,6.67
2018-11-04T16:43:52.343Z,6.97
2018-11-04T16:45:55.190Z,7.20
2018-11-04T16:47:58.880Z,7.30
2018-11-04T16:50:02.769Z,6.20
2018-11-04T16:52:05.684Z,6.37
2018-11-04T16:54:08.611Z,5.63
2018-11-04T16:56:11.609Z,7.33
2018-11-04T16:58:14.481Z,6.30
2018-11-04T17:00:17.513Z,6.67
2018-11-04T17:02:21.183Z,6.53
2018-11-04T17:04:24.328Z,6.60
2018-11-04T17:06:27.163Z,5.70
2018-11-04T17:08:30.161Z,5.57
2018-11-04T17:10:33.248Z,6.80
2018-11-04T17:12:36.953Z,6.07
2018-11-04T17:14:40.628Z,6.07
2018-11-04T17:16:43.561Z,6.07
2018-11-04T17:18:46.475Z,6.17
2018-11-04T17:20:49.451Z,5.60
2018-11-04T17:22:52.344Z,5.23
2018-11-04T17:24:55.254Z,6.57
2018-11-04T17:26:58.954Z,5.57
2018-11-04T17:29:02.624Z,6.10
2018-11-04T17:31:06.337Z,5.70
2018-11-04T17:33:10.084Z,4.70
2018-11-04T17:35:12.983Z,5.90
2018-11-04T17:37:15.933Z,6.07
2018-11-04T17:39:18.852Z,5.40
2018-11-04T17:41:21.784Z,5.83
2018-11-04T17:43:24.712Z,5.90
2018-11-04T17:45:27.622Z,5.80
2018-11-04T17:47:30.548Z,5.40
2018-11-04T17:49:33.479Z,5.80
2018-11-04T17:51:36.431Z,5.40
2018-11-04T17:53:39.351Z,5.40
2018-11-04T17:55:43.772Z,5.87
2018-11-04T17:57:47.552Z,5.57
2018-11-04T17:59:50.480Z,5.60
2018-11-04T18:01:53.772Z,6.00
2018-11-04T18:03:57.465Z,5.30
2018-11-04T18:06:01.145Z,5.50
2018-11-04T18:08:04.085Z,5.10
2018-11-04T18:10:07.949Z,5.75
2018-11-04T18:12:11.749Z,5.57
2018-11-04T18:14:15.417Z,6.27
2018-11-04T18:16:18.432Z,5.47
2018-11-04T18:18:22.148Z,4.83
2018-11-04T18:20:25.076Z,5.10
2018-11-04T18:22:28.025Z,4.87
2018-11-04T18:24:30.936Z,5.00
2018-11-04T18:26:33.852Z,5.27
2018-11-04T18:28:37.656Z,5.23
2018-11-04T18:30:41.321Z,4.83
2018-11-04T18:32:44.261Z,5.40
2018-11-04T18:34:47.176Z,4.80
2018-11-04T18:36:50.207Z,5.53
2018-11-04T18:38:53.913Z,4.83
2018-11-04T18:40:56.864Z,4.70
2018-11-04T18:42:59.792Z,5.43
2018-11-04T18:45:03.371Z,6.00
2018-11-04T18:47:07.660Z,6.10
2018-11-04T18:49:11.411Z,5.27
2018-11-04T18:51:14.612Z,4.67
2018-11-04T18:53:19.765Z,5.03
2018-11-04T18:55:23.480Z,5.20
2018-11-04T18:57:26.405Z,4.50
2018-11-04T18:59:29.344Z,5.07
2018-11-04T19:01:33.760Z,5.50
2018-11-04T19:03:36.746Z,5.35
2018-11-04T19:05:41.163Z,5.00
2018-11-04T19:07:44.072Z,4.90
2018-11-04T19:09:47.050Z,5.60
2018-11-04T19:11:50.798Z,4.77
2018-11-04T19:13:53.671Z,5.37
2018-11-04T19:15:56.594Z,5.20
2018-11-04T19:17:59.512Z,5.17
2018-11-04T19:20:02.479Z,5.20
2018-11-04T19:22:06.152Z,5.80
2018-11-04T19:24:09.639Z,5.10
2018-11-04T19:26:12.657Z,5.40
2018-11-04T19:28:16.328Z,5.00
2018-11-04T19:30:19.264Z,5.10
2018-11-04T19:32:22.172Z,5.60
2018-11-04T19:34:25.123Z,5.87
2018-11-04T19:36:28.044Z,6.23
2018-11-04T19:38:31.066Z,6.13
2018-11-04T19:40:34.751Z,5.87
2018-11-04T19:42:38.585Z,5.40
2018-11-04T19:44:41.419Z,5.90
2018-11-04T19:46:45.025Z,6.20
2018-11-04T19:48:48.096Z,7.17
2018-11-04T19:50:52.617Z,6.73
2018-11-04T19:52:55.481Z,5.60
2018-11-04T19:54:58.416Z,6.70
2018-11-04T19:57:01.339Z,6.40
2018-11-04T19:59:04.396Z,6.93
2018-11-04T20:01:07.327Z,6.80
2018-11-04T20:03:10.242Z,6.23
2018-11-04T20:05:14.213Z,6.77
2018-11-04T20:07:17.849Z,7.10
2018-11-04T20:09:21.516Z,6.40
2018-11-04T20:11:24.448Z,7.53
2018-11-04T20:13:42.274Z,7.20
2018-11-04T20:15:45.984Z,6.50
2018-11-04T20:17:48.916Z,7.50
2018-11-04T20:20:06.740Z,7.10
2018-11-04T20:22:09.755Z,7.00
2018-11-04T20:24:12.745Z,6.82
2018-11-04T20:26:16.436Z,6.80
2018-11-04T20:28:20.117Z,7.40
2018-11-04T20:30:24.656Z,6.97
2018-11-04T20:32:43.236Z,8.43
2018-11-04T20:34:46.641Z,8.60
2018-11-04T20:36:49.595Z,7.53
2018-11-04T20:38:52.530Z,7.83
2018-11-04T20:41:16.388Z,7.90
2018-11-04T20:43:19.419Z,8.30
2018-11-04T20:45:22.575Z,8.60
2018-11-04T20:47:25.470Z,7.80
2018-11-04T20:49:34.610Z,8.30
2018-11-04T20:51:38.941Z,8.90
2018-11-04T20:53:41.844Z,8.13
2018-11-04T20:55:44.775Z,8.73
2018-11-04T20:57:48.622Z,8.50
2018-11-04T20:59:51.529Z,8.03
2018-11-04T21:01:54.525Z,7.97
2018-11-04T21:03:57.589Z,8.17
2018-11-04T21:06:01.120Z,8.27
2018-11-04T21:08:05.661Z,8.83
2018-11-04T21:10:09.461Z,8.43
2018-11-04T21:12:13.040Z,9.27
2018-11-04T21:14:16.055Z,9.33
2018-11-04T21:16:18.957Z,8.40
2018-11-04T21:18:21.896Z,8.83
2018-11-04T21:20:25.588Z,7.90
2018-11-04T21:22:28.567Z,8.02
2018-11-04T21:24:31.503Z,8.10
2018-11-04T21:26:34.431Z,9.40
2018-11-04T21:28:38.380Z,8.20
2018-11-04T21:30:41.829Z,9.60
2018-11-04T21:32:45.524Z,8.77
2018-11-04T21:34:49.977Z,9.13
2018-11-04T21:36:52.900Z,9.07
2018-11-04T21:38:55.864Z,8.70
2018-11-04T21:40:58.797Z,8.50
2018-11-04T21:43:02.536Z,8.90
2018-11-04T21:45:05.436Z,8.80
2018-11-04T21:47:08.357Z,9.60
2018-11-04T21:49:12.068Z,8.60
2018-11-04T21:51:15.885Z,9.40
2018-11-04T21:53:18.736Z,9.10
2018-11-04T21:55:22.562Z,8.60
2018-11-04T21:57:25.417Z,8.73
2018-11-04T21:59:28.374Z,8.77
2018-11-04T22:01:31.292Z,9.10
2018-11-04T22:03:35.160Z,9.70
2018-11-04T22:05:38.077Z,9.07
2018-11-04T22:07:41.783Z,9.57
2018-11-04T22:09:45.600Z,8.43
2018-11-04T22:11:49.271Z,9.20
2018-11-04T22:13:52.317Z,8.13
2018-11-04T22:15:55.264Z,8.67
2018-11-04T22:17:58.247Z,9.13
2018-11-04T22:20:02.049Z,9.90
2018-11-04T22:22:05.160Z,9.65
2018-11-04T22:24:08.084Z,9.77
2018-11-04T22:26:11.795Z,8.93
2018-11-04T22:28:15.488Z,8.90
2018-11-04T22:30:20.036Z,8.73
2018-11-04T22:32:23.838Z,9.77
2018-11-04T22:34:27.512Z,9.57
2018-11-04T22:36:30.537Z,9.30
2018-11-04T22:38:33.399Z,9.43
2018-11-04T22:40:36.343Z,9.77
2018-11-04T22:42:39.276Z,8.23
2018-11-04T22:44:42.195Z,8.87
2018-11-04T22:46:45.150Z,8.53
2018-11-04T22:48:48.079Z,10.07
2018-11-04T22:50:51.012Z,9.07
2018-11-04T22:52:53.934Z,9.47
2018-11-04T22:54:56.871Z,9.17
2018-11-04T22:56:59.811Z,9.20
2018-11-04T22:59:04.252Z,8.33
2018-11-04T23:01:07.939Z,8.87
2018-11-04T23:03:11.612Z,9.30
2018-11-04T23:05:14.796Z,8.25
2018-11-04T23:07:17.763Z,9.17
2018-11-04T23:09:20.666Z,7.87
2018-11-04T23:11:23.599Z,9.97
2018-11-04T23:13:26.535Z,8.40
2018-11-04T23:15:29.452Z,9.27
2018-11-04T23:17:32.395Z,7.77
2018-11-04T23:19:36.853Z,8.43
2018-11-04T23:21:40.654Z,8.80
2018-11-04T23:23:44.328Z,8.50
2018-11-04T23:25:47.248Z,8.43
2018-11-04T23:27:50.210Z,8.23
2018-11-04T23:29:53.887Z,8.13
2018-11-04T23:31:57.825Z,8.40
2018-11-04T23:34:01.488Z,9.27
2018-11-04T23:36:05.201Z,9.00
2018-11-04T23:38:08.909Z,8.03
2018-11-04T23:40:12.588Z,8.90
2018-11-04T23:42:15.707Z,7.70
2018-11-04T23:44:18.635Z,8.10
2018-11-04T23:46:21.565Z,7.33
2018-11-04T23:48:25.375Z,8.70
2018-11-04T23:50:29.064Z,7.60
2018-11-04T23:52:32.043Z,7.73
2018-11-04T23:54:35.719Z,7.60
2018-11-04T23:56:38.652Z,8.03
2018-11-04T23:58:41.599Z,8.30
